Terminal Aerodrome Forecast
Issued by NWS Knoxville/Tri Cities, TN

Home | Current Version | Previous Version | Text Only | Print | Product List | Glossary On
Versions: 1 2 3 4 5 6 7 8 9 10 11 12 13 14 15 16 17 18 19 20 21 22 23 24
000
FTUS44 KMRX 301125
TAFCHA
TAF
KCHA 301125Z 3012/3112 VRB05KT P6SM SCT080 BKN250
     FM301800 18006KT P6SM VCTS BKN050CB OVC150
     FM310200 VRB03KT P6SM OVC100=

USA.gov is the U.S. government's official web portal to all federal, state and local government web resources and services.